createdAt,value
2023-05-22T00:01:32.908Z,101283.44
2023-05-22T00:03:59.838Z,101291.94
2023-05-22T00:06:27.495Z,101279.84
2023-05-22T00:08:53.967Z,101283.31
2023-05-22T00:11:21.064Z,101285.41
2023-05-22T00:13:47.524Z,101280.69
2023-05-22T00:16:14.008Z,101280.69
2023-05-22T00:18:44.577Z,101281.03
2023-05-22T00:21:11.307Z,101282.91
2023-05-22T00:23:37.829Z,101284.25
2023-05-22T00:26:04.397Z,101275.06
2023-05-22T00:28:30.880Z,101270.59
2023-05-22T00:30:57.426Z,101267.97
2023-05-22T00:33:24.347Z,101267.97
2023-05-22T00:35:51.292Z,101277.28
2023-05-22T00:38:29.700Z,101270.97
2023-05-22T00:40:56.672Z,101264.41
2023-05-22T00:43:23.190Z,101267.03
2023-05-22T00:45:49.662Z,101269.72
2023-05-22T00:48:16.190Z,101259.97
2023-05-22T00:50:43.011Z,101261.09
2023-05-22T00:53:10.592Z,101260.31
2023-05-22T00:55:37.209Z,101256.94
2023-05-22T00:58:07.696Z,101263.53
2023-05-22T01:00:36.865Z,101270.41
2023-05-22T01:03:07.869Z,101257.19
2023-05-22T01:05:34.707Z,101269.38
2023-05-22T01:08:01.317Z,101258.06
2023-05-22T01:10:29.057Z,101266.78
2023-05-22T01:13:04.564Z,101264.19
2023-05-22T01:15:47.312Z,101265.28
2023-05-22T01:18:25.067Z,101265.84
2023-05-22T01:20:58.218Z,101259.78
2023-05-22T01:23:41.324Z,101260.88
2023-05-22T01:26:46.117Z,101262.75
2023-05-22T01:29:15.578Z,101258.84
2023-05-22T01:31:46.310Z,101258.84
2023-05-22T01:34:14.321Z,101252.78
2023-05-22T01:36:42.514Z,101254.13
2023-05-22T01:39:09.629Z,101258.13
2023-05-22T01:41:36.238Z,101249.41
2023-05-22T01:44:03.452Z,101250.50
2023-05-22T01:46:30.539Z,101243.94
2023-05-22T01:48:58.000Z,101245.56
2023-05-22T01:51:51.958Z,101237.41
2023-05-22T01:54:30.205Z,101237.94
2023-05-22T01:57:12.104Z,101234.56
2023-05-22T01:59:49.588Z,101237.47
2023-05-22T02:02:18.778Z,101228.53
2023-05-22T02:04:56.810Z,101241.72
2023-05-22T02:07:27.741Z,101232.50
2023-05-22T02:09:56.633Z,101235.97
2023-05-22T02:12:24.511Z,101244.66
2023-05-22T02:14:51.280Z,101237.31
2023-05-22T02:17:18.306Z,101235.50
2023-05-22T02:19:45.195Z,101235.78
2023-05-22T02:22:13.762Z,101227.34
2023-05-22T02:24:46.744Z,101230.78
2023-05-22T02:27:14.234Z,101226.06
2023-05-22T02:29:40.905Z,101228.16
2023-05-22T02:32:08.296Z,101226.63
2023-05-22T02:34:35.047Z,101229.50
2023-05-22T02:37:04.932Z,101219.78
2023-05-22T02:39:31.589Z,101221.13
2023-05-22T02:41:58.182Z,101220.63
2023-05-22T02:44:24.689Z,101221.41
2023-05-22T02:46:51.336Z,101218.28
2023-05-22T02:49:18.673Z,101212.00
2023-05-22T02:51:47.630Z,101214.34
2023-05-22T02:54:15.913Z,101208.84
2023-05-22T02:56:43.361Z,101208.84
2023-05-22T02:59:10.527Z,101199.66
2023-05-22T03:01:38.706Z,101201.75
2023-05-22T03:04:06.652Z,101195.25
2023-05-22T03:06:35.117Z,101200.50
2023-05-22T03:09:03.989Z,101203.94
2023-05-22T03:11:31.267Z,101200.78
2023-05-22T03:13:57.795Z,101192.63
2023-05-22T03:16:24.957Z,101186.34
2023-05-22T03:18:52.179Z,101188.44
2023-05-22T03:21:19.121Z,101191.88
2023-05-22T03:23:47.093Z,101194.56
2023-05-22T03:26:13.618Z,101186.94
2023-05-22T03:28:40.639Z,101186.94
2023-05-22T03:31:09.261Z,101193.28
2023-05-22T03:33:47.512Z,101190.16
2023-05-22T03:36:14.919Z,101190.44
2023-05-22T03:38:41.439Z,101202.06
2023-05-22T03:41:08.118Z,101188.09
2023-05-22T03:43:34.577Z,101194.19
2023-05-22T03:46:01.543Z,101192.63
2023-05-22T03:48:28.036Z,101195.28
2023-05-22T03:50:54.629Z,101193.94
2023-05-22T03:53:21.213Z,101195.28
2023-05-22T03:55:47.747Z,101188.97
2023-05-22T03:58:14.534Z,101194.25
2023-05-22T04:00:42.449Z,101191.09
2023-05-22T04:03:13.238Z,101196.13
2023-05-22T04:05:40.039Z,101188.50
2023-05-22T04:08:06.504Z,101187.97
2023-05-22T04:10:33.161Z,101191.41
2023-05-22T04:12:59.702Z,101195.09
2023-05-22T04:15:26.482Z,101189.81
2023-05-22T04:17:54.517Z,101194.03
2023-05-22T04:20:22.220Z,101192.50
2023-05-22T04:22:50.720Z,101194.03
2023-05-22T04:25:17.415Z,101194.34
2023-05-22T04:27:44.273Z,101199.59
2023-05-22T04:30:10.868Z,101197.47
2023-05-22T04:32:38.709Z,101202.50
2023-05-22T04:35:05.624Z,101203.81
2023-05-22T04:37:32.159Z,101200.91
2023-05-22T04:40:05.856Z,101195.13
2023-05-22T04:42:34.459Z,101206.72
2023-05-22T04:45:01.392Z,101200.91
2023-05-22T04:47:31.680Z,101200.13
2023-05-22T04:50:02.534Z,101202.25
2023-05-22T04:52:29.061Z,101205.69
2023-05-22T04:54:55.674Z,101205.16
2023-05-22T04:57:25.406Z,101195.13
2023-05-22T04:59:54.183Z,101200.91
2023-05-22T05:02:20.778Z,101196.69
2023-05-22T05:04:48.279Z,101198.03
2023-05-22T05:07:17.536Z,101196.69
2023-05-22T05:09:44.408Z,101196.69
2023-05-22T05:12:11.085Z,101188.78
2023-05-22T05:14:37.648Z,101196.94
2023-05-22T05:17:04.596Z,101188.25
2023-05-22T05:19:35.488Z,101194.84
2023-05-22T05:22:04.569Z,101191.41
2023-05-22T05:24:31.284Z,101187.16
2023-05-22T05:26:58.932Z,101189.53
2023-05-22T05:29:26.215Z,101191.88
2023-05-22T05:32:02.087Z,101190.56
2023-05-22T05:34:45.134Z,101183.44
2023-05-22T05:37:26.294Z,101176.31
2023-05-22T05:39:56.448Z,101170.75
2023-05-22T05:42:23.363Z,101184.16
2023-05-22T05:44:50.136Z,101177.03
2023-05-22T05:47:17.950Z,101174.63
2023-05-22T05:49:44.439Z,101173.28
2023-05-22T05:52:12.795Z,101173.00
2023-05-22T05:54:39.309Z,101170.91
2023-05-22T05:57:14.602Z,101175.34
2023-05-22T05:59:41.133Z,101179.53
2023-05-22T06:02:37.681Z,101181.88
2023-05-22T06:05:06.189Z,101172.41
2023-05-22T06:07:38.056Z,101176.31
2023-05-22T06:10:10.845Z,101180.25
2023-05-22T06:12:44.459Z,101176.81
2023-05-22T06:15:13.129Z,101175.72
2023-05-22T06:17:39.665Z,101171.50
2023-05-22T06:20:07.381Z,101176.19
2023-05-22T06:22:35.728Z,101182.47
2023-05-22T06:25:02.851Z,101173.00
2023-05-22T06:27:32.768Z,101171.41
2023-05-22T06:30:00.510Z,101173.25
2023-05-22T06:32:31.286Z,101178.44
2023-05-22T06:35:03.459Z,101175.81
2023-05-22T06:37:33.022Z,101180.03
2023-05-22T06:40:00.977Z,101193.13
2023-05-22T06:42:45.597Z,101178.84
2023-05-22T06:45:32.948Z,101180.66
2023-05-22T06:48:34.313Z,101183.00
2023-05-22T06:51:11.602Z,101175.34
2023-05-22T06:53:41.718Z,101183.19
2023-05-22T06:56:13.883Z,101168.22
2023-05-22T06:58:52.035Z,101181.56
2023-05-22T07:01:20.719Z,101175.97
2023-05-22T07:04:01.644Z,101175.97
2023-05-22T07:06:42.318Z,101179.59
2023-05-22T07:09:14.178Z,101184.84
2023-05-22T07:11:44.091Z,101176.16
2023-05-22T07:14:12.808Z,101180.63
2023-05-22T07:16:42.409Z,101188.94
2023-05-22T07:19:10.425Z,101189.19
2023-05-22T07:21:37.297Z,101186.75
2023-05-22T07:24:08.071Z,101187.00
2023-05-22T07:26:37.969Z,101190.91
2023-05-22T07:29:08.799Z,101182.41
2023-05-22T07:31:35.416Z,101184.78
2023-05-22T07:34:02.190Z,101185.03
2023-05-22T07:36:31.763Z,101181.03
2023-05-22T07:38:58.208Z,101175.66
2023-05-22T07:41:25.643Z,101186.19
2023-05-22T07:43:52.407Z,101174.81
2023-05-22T07:46:23.276Z,101180.09
2023-05-22T07:49:07.213Z,101178.22
2023-05-22T07:51:34.851Z,101173.44
2023-05-22T07:54:01.397Z,101171.19
2023-05-22T07:56:27.945Z,101173.00
2023-05-22T07:58:56.168Z,101167.19
2023-05-22T08:01:23.526Z,101170.03
2023-05-22T08:03:50.240Z,101163.13
2023-05-22T08:06:17.780Z,101164.91
2023-05-22T08:08:44.296Z,101174.06
2023-05-22T08:11:11.043Z,101158.44
2023-05-22T08:13:38.696Z,101166.06
2023-05-22T08:16:05.621Z,101163.38
2023-05-22T08:18:32.111Z,101162.25
2023-05-22T08:21:00.168Z,101161.16
2023-05-22T08:23:26.744Z,101160.06
2023-05-22T08:25:53.403Z,101154.72
2023-05-22T08:28:19.864Z,101158.06
2023-05-22T08:30:46.369Z,101155.38
2023-05-22T08:33:12.882Z,101151.34
2023-05-22T08:35:39.426Z,101152.94
2023-05-22T08:38:06.136Z,101150.50
2023-05-22T08:40:40.262Z,101156.75
2023-05-22T08:43:07.920Z,101152.72
2023-05-22T08:45:34.617Z,101147.13
2023-05-22T08:48:05.988Z,101145.78
2023-05-22T08:50:34.698Z,101142.59
2023-05-22T08:53:04.057Z,101138.88
2023-05-22T08:55:30.891Z,101139.03
2023-05-22T08:57:58.306Z,101143.72
2023-05-22T09:00:24.975Z,101134.41
2023-05-22T09:02:52.418Z,101134.88
2023-05-22T09:05:19.421Z,101127.16
2023-05-22T09:07:45.916Z,101122.34
2023-05-22T09:10:12.415Z,101130.97
2023-05-22T09:12:38.876Z,101118.78
2023-05-22T09:15:10.423Z,101125.81
2023-05-22T09:17:41.044Z,101115.72
2023-05-22T09:20:10.095Z,101120.66
2023-05-22T09:22:38.280Z,101106.56
2023-05-22T09:25:05.464Z,101111.25
2023-05-22T09:27:32.007Z,101118.31
2023-05-22T09:29:58.794Z,101113.47
2023-05-22T09:32:29.395Z,101109.44
2023-05-22T09:35:03.571Z,101107.75
2023-05-22T09:37:34.176Z,101103.72
2023-05-22T09:40:05.917Z,101107.06
2023-05-22T09:42:35.759Z,101097.22
2023-05-22T09:45:06.518Z,101091.81
2023-05-22T09:47:36.988Z,101086.47
2023-05-22T09:50:06.999Z,101083.97
2023-05-22T09:52:34.971Z,101086.53
2023-05-22T09:55:08.795Z,101080.16
2023-05-22T09:57:48.261Z,101090.91
2023-05-22T10:00:18.305Z,101092.88
2023-05-22T10:02:47.795Z,101082.47
2023-05-22T10:05:33.723Z,101084.44
2023-05-22T10:08:10.355Z,101082.31
2023-05-22T10:10:39.285Z,101074.00
2023-05-22T10:13:08.903Z,101075.78
2023-05-22T10:15:35.913Z,101062.19
2023-05-22T10:18:03.128Z,101058.94
2023-05-22T10:20:30.859Z,101052.97
2023-05-22T10:22:57.428Z,101045.25
2023-05-22T10:25:23.978Z,101053.03
2023-05-22T10:27:53.555Z,101047.63
2023-05-22T10:30:44.370Z,101050.97
2023-05-22T10:33:41.968Z,101039.31
2023-05-22T10:36:13.975Z,101042.88
2023-05-22T10:38:54.251Z,101037.47
2023-05-22T10:41:22.338Z,101032.06
2023-05-22T10:43:50.922Z,101028.00
2023-05-22T10:46:18.275Z,101033.66
2023-05-22T10:48:46.702Z,101032.53
2023-05-22T10:51:14.680Z,101021.88
2023-05-22T10:53:43.520Z,101025.19
2023-05-22T10:56:15.475Z,101026.75
2023-05-22T10:58:55.813Z,101016.28
2023-05-22T11:01:26.190Z,101017.50
2023-05-22T11:04:14.246Z,101008.94
2023-05-22T11:06:49.025Z,101019.06
2023-05-22T11:09:28.745Z,101014.25
2023-05-22T11:12:18.275Z,101014.44
2023-05-22T11:14:50.539Z,101016.41
2023-05-22T11:17:20.231Z,101004.34
2023-05-22T11:20:08.191Z,101000.66
2023-05-22T11:22:43.805Z,101002.06
2023-05-22T11:25:14.927Z,101006.75
2023-05-22T11:27:41.671Z,100997.03
2023-05-22T11:30:12.744Z,100995.91
2023-05-22T11:32:43.715Z,100994.94
2023-05-22T11:35:18.329Z,100996.72
2023-05-22T11:37:45.888Z,100990.50
2023-05-22T11:40:26.611Z,100990.13
2023-05-22T11:42:53.720Z,100986.06
2023-05-22T11:45:20.487Z,100978.50
2023-05-22T11:47:48.462Z,100980.25
2023-05-22T11:50:17.907Z,100975.78
2023-05-22T11:52:50.052Z,100982.00
2023-05-22T11:55:16.596Z,100971.13
2023-05-22T11:57:44.170Z,100973.06
2023-05-22T12:00:11.869Z,100985.13
2023-05-22T12:02:39.054Z,100966.25
2023-05-22T12:05:06.748Z,100973.84
2023-05-22T12:07:33.257Z,100963.75
2023-05-22T12:10:01.048Z,100964.13
2023-05-22T12:12:27.713Z,100957.88
2023-05-22T12:14:54.167Z,100956.72
2023-05-22T12:17:20.692Z,100960.44
2023-05-22T12:19:48.911Z,100956.34
2023-05-22T12:22:15.628Z,100955.75
2023-05-22T12:24:47.013Z,100959.09
2023-05-22T12:27:14.738Z,100951.31
2023-05-22T12:29:42.851Z,100952.88
2023-05-22T12:32:11.600Z,100949.94
2023-05-22T12:34:46.601Z,100944.09
2023-05-22T12:37:25.134Z,100952.47
2023-05-22T12:39:59.236Z,100941.19
2023-05-22T12:42:26.425Z,100945.66
2023-05-22T12:44:54.502Z,100940.41
2023-05-22T12:47:23.602Z,100936.31
2023-05-22T12:49:51.059Z,100933.78
2023-05-22T12:52:18.010Z,100930.25
2023-05-22T12:54:44.561Z,100937.28
2023-05-22T12:57:11.059Z,100924.41
2023-05-22T12:59:37.478Z,100911.56
2023-05-22T13:02:05.472Z,100922.06
2023-05-22T13:04:32.298Z,100915.06
2023-05-22T13:06:58.876Z,100906.47
2023-05-22T13:09:25.498Z,100912.50
2023-05-22T13:11:52.508Z,100914.44
2023-05-22T13:14:19.041Z,100910.31
2023-05-22T13:16:45.497Z,100906.03
2023-05-22T13:19:12.076Z,100909.16
2023-05-22T13:21:38.635Z,100897.66
2023-05-22T13:24:05.314Z,100903.09
2023-05-22T13:26:31.795Z,100892.34
2023-05-22T13:28:58.335Z,100902.50
2023-05-22T13:31:24.949Z,100901.31
2023-05-22T13:33:51.647Z,100888.25
2023-05-22T13:36:18.681Z,100899.56
2023-05-22T13:38:45.181Z,100897.00
2023-05-22T13:41:11.779Z,100889.19
2023-05-22T13:43:38.213Z,100890.16
2023-05-22T13:46:04.969Z,100879.81
2023-05-22T13:48:31.437Z,100887.63
2023-05-22T13:50:57.890Z,100880.22
2023-05-22T13:53:24.350Z,100871.81
2023-05-22T13:55:51.048Z,100866.13
2023-05-22T13:58:17.545Z,100863.97
2023-05-22T14:00:44.268Z,100864.94
2023-05-22T14:03:11.669Z,100862.03
2023-05-22T14:05:38.555Z,100856.34
2023-05-22T14:08:05.361Z,100854.19
2023-05-22T14:10:31.991Z,100843.47
2023-05-22T14:12:58.494Z,100842.69
2023-05-22T14:15:25.112Z,100827.88
2023-05-22T14:17:51.696Z,100829.59
2023-05-22T14:20:18.302Z,100823.16
2023-05-22T14:22:56.329Z,100826.25
2023-05-22T14:25:24.756Z,100820.41
2023-05-22T14:27:51.276Z,100820.78
2023-05-22T14:30:17.919Z,100818.03
2023-05-22T14:32:46.090Z,100805.13
2023-05-22T14:35:13.624Z,100809.03
2023-05-22T14:37:40.769Z,100807.03
2023-05-22T14:40:08.758Z,100802.34
2023-05-22T14:42:36.473Z,100798.81
2023-05-22T14:45:04.185Z,100800.53
2023-05-22T14:47:31.068Z,100799.34
2023-05-22T14:50:06.677Z,100804.22
2023-05-22T14:52:41.410Z,100780.78
2023-05-22T14:55:08.712Z,100789.94
2023-05-22T14:57:35.675Z,100784.25
2023-05-22T15:00:02.221Z,100783.06
2023-05-22T15:02:29.237Z,100792.03
2023-05-22T15:04:56.093Z,100790.81
2023-05-22T15:07:29.309Z,100795.13
2023-05-22T15:10:02.304Z,100801.75
2023-05-22T15:12:28.848Z,100793.56
2023-05-22T15:14:55.341Z,100792.22
2023-05-22T15:17:22.197Z,100790.81
2023-05-22T15:19:49.608Z,100780.50
2023-05-22T15:22:19.778Z,100776.00
2023-05-22T15:25:04.195Z,100765.13
2023-05-22T15:27:31.082Z,100757.31
2023-05-22T15:29:57.850Z,100762.41
2023-05-22T15:32:24.466Z,100751.09
2023-05-22T15:34:51.665Z,100765.13
2023-05-22T15:37:18.379Z,100772.00
2023-05-22T15:39:44.920Z,100780.78
2023-05-22T15:42:11.486Z,100782.19
2023-05-22T15:44:37.992Z,100784.13
2023-05-22T15:47:04.441Z,100772.25
2023-05-22T15:49:31.520Z,100777.31
2023-05-22T15:51:58.517Z,100762.50
2023-05-22T15:54:25.043Z,100766.63
2023-05-22T15:56:51.553Z,100769.38
2023-05-22T15:59:18.060Z,100782.44
2023-05-22T16:01:44.860Z,100776.25
2023-05-22T16:04:12.006Z,100790.69
2023-05-22T16:06:38.504Z,100818.22
2023-05-22T16:09:05.876Z,100812.97
2023-05-22T16:11:33.318Z,100813.38
2023-05-22T16:13:59.808Z,100827.47
2023-05-22T16:16:26.341Z,100846.22
2023-05-22T16:18:52.890Z,100844.28
2023-05-22T16:21:19.733Z,100833.41
2023-05-22T16:23:46.333Z,100841.22
2023-05-22T16:26:12.809Z,100845.91
2023-05-22T16:28:39.286Z,100853.75
2023-05-22T16:31:06.288Z,100854.34
2023-05-22T16:33:34.366Z,100846.16
2023-05-22T16:36:00.832Z,100842.88
2023-05-22T16:38:27.299Z,100847.56
2023-05-22T16:40:54.934Z,100866.69
2023-05-22T16:43:22.108Z,100859.69
2023-05-22T16:45:51.013Z,100881.91
2023-05-22T16:48:18.135Z,100896.75
2023-05-22T16:50:46.823Z,100909.63
2023-05-22T16:53:16.664Z,100930.25
2023-05-22T16:55:43.507Z,100936.50
2023-05-22T16:58:11.694Z,100924.25
2023-05-22T17:00:39.905Z,100933.41
2023-05-22T17:03:08.113Z,100933.00
2023-05-22T17:05:36.610Z,100937.63
2023-05-22T17:08:03.261Z,100940.97
2023-05-22T17:10:29.929Z,100944.66
2023-05-22T17:12:56.549Z,100952.44
2023-05-22T17:15:23.030Z,100945.63
2023-05-22T17:17:49.788Z,100952.44
2023-05-22T17:20:16.749Z,100956.50
2023-05-22T17:22:43.422Z,100967.22
2023-05-22T17:25:10.200Z,100964.47
2023-05-22T17:27:37.080Z,100959.81
2023-05-22T17:30:05.533Z,100971.09
2023-05-22T17:32:32.373Z,100977.31
2023-05-22T17:34:59.325Z,100966.81
2023-05-22T17:37:25.802Z,100958.41
2023-05-22T17:39:52.267Z,100972.03
2023-05-22T17:42:19.051Z,100975.34
2023-05-22T17:44:45.842Z,100969.88
2023-05-22T17:47:13.419Z,100971.03
2023-05-22T17:49:40.025Z,100974.91
2023-05-22T17:52:08.460Z,100963.59
2023-05-22T17:54:35.623Z,100959.28
2023-05-22T17:57:04.106Z,100968.63
2023-05-22T17:59:32.501Z,100972.13
2023-05-22T18:01:59.162Z,100973.25
2023-05-22T18:04:26.087Z,100972.28
2023-05-22T18:06:52.668Z,100975.56
2023-05-22T18:09:19.180Z,100982.34
2023-05-22T18:11:45.705Z,100993.25
2023-05-22T18:14:12.189Z,100988.56
2023-05-22T18:16:38.736Z,100994.19
2023-05-22T18:19:05.511Z,101001.97
2023-05-22T18:21:32.270Z,100997.28
2023-05-22T18:23:58.978Z,101001.13
2023-05-22T18:26:29.330Z,101009.69
2023-05-22T18:28:56.428Z,101007.34
2023-05-22T18:31:22.964Z,100993.69
2023-05-22T18:33:49.673Z,101003.81
2023-05-22T18:36:16.180Z,100994.84
2023-05-22T18:38:42.853Z,100979.28
2023-05-22T18:41:09.436Z,100982.00
2023-05-22T18:43:36.000Z,100961.75
2023-05-22T18:46:02.462Z,100952.81
2023-05-22T18:48:30.755Z,100939.38
2023-05-22T18:50:58.213Z,100926.72
2023-05-22T18:53:25.927Z,100904.78
2023-05-22T18:55:53.755Z,100898.50
2023-05-22T18:58:20.708Z,100901.22
2023-05-22T19:00:47.422Z,100886.44
2023-05-22T19:03:14.582Z,100874.38
2023-05-22T19:05:41.525Z,100871.25
2023-05-22T19:08:08.097Z,100880.34
2023-05-22T19:10:34.707Z,100882.28
2023-05-22T19:13:01.445Z,100887.13
2023-05-22T19:15:28.137Z,100897.78
2023-05-22T19:17:54.865Z,100915.84
2023-05-22T19:20:22.891Z,100927.84
2023-05-22T19:22:50.941Z,100947.25
2023-05-22T19:25:18.315Z,100953.47
2023-05-22T19:27:45.068Z,100954.78
2023-05-22T19:30:15.069Z,100966.00
2023-05-22T19:32:43.518Z,100984.66
2023-05-22T19:35:11.398Z,100980.75
2023-05-22T19:37:38.159Z,100983.78
2023-05-22T19:40:05.969Z,100983.78
2023-05-22T19:42:33.112Z,100990.75
2023-05-22T19:44:59.870Z,100993.25
2023-05-22T19:47:27.262Z,101006.78
2023-05-22T19:49:53.913Z,101000.00
2023-05-22T19:52:20.698Z,101004.03
2023-05-22T19:54:47.413Z,101008.06
2023-05-22T19:57:14.063Z,100995.44
2023-05-22T19:59:40.720Z,101014.25
2023-05-22T20:02:07.388Z,101010.31
2023-05-22T20:04:34.416Z,101023.84
2023-05-22T20:07:02.358Z,101019.97
2023-05-22T20:09:29.234Z,101018.38
2023-05-22T20:11:56.067Z,101015.06
2023-05-22T20:14:22.696Z,101017.75
2023-05-22T20:16:49.376Z,101018.31
2023-05-22T20:19:17.594Z,101017.13
2023-05-22T20:21:44.278Z,101024.28
2023-05-22T20:24:21.097Z,101022.47
2023-05-22T20:26:48.034Z,101023.59
2023-05-22T20:29:14.838Z,101027.66
2023-05-22T20:31:41.719Z,101027.44
2023-05-22T20:34:09.555Z,101032.81
2023-05-22T20:36:36.570Z,101027.56
2023-05-22T20:39:03.647Z,101029.47
2023-05-22T20:41:30.254Z,101030.59
2023-05-22T20:43:58.520Z,101028.81
2023-05-22T20:46:26.510Z,101028.59
2023-05-22T20:48:53.362Z,101026.81
2023-05-22T20:51:20.816Z,101035.34
2023-05-22T20:53:48.523Z,101036.44
2023-05-22T20:56:15.257Z,101039.13
2023-05-22T20:58:42.565Z,101051.88
2023-05-22T21:01:09.805Z,101045.84
2023-05-22T21:03:36.551Z,101053.56
2023-05-22T21:06:03.430Z,101052.56
2023-05-22T21:08:30.819Z,101050.22
2023-05-22T21:10:57.472Z,101047.88
2023-05-22T21:13:24.037Z,101033.44
2023-05-22T21:15:51.310Z,101042.72
2023-05-22T21:18:19.742Z,101037.66
2023-05-22T21:20:46.701Z,101049.63
2023-05-22T21:23:13.363Z,101038.31
2023-05-22T21:25:40.078Z,101041.78
2023-05-22T21:28:07.801Z,101034.44
2023-05-22T21:30:34.693Z,101031.88
2023-05-22T21:33:01.374Z,101025.03
2023-05-22T21:35:28.075Z,101017.66
2023-05-22T21:37:54.818Z,101014.53
2023-05-22T21:40:21.455Z,101011.41
2023-05-22T21:42:48.076Z,101002.44
2023-05-22T21:45:14.874Z,100994.88
2023-05-22T21:47:41.710Z,100991.72
2023-05-22T21:50:08.853Z,100988.59
2023-05-22T21:52:35.596Z,100975.19
2023-05-22T21:55:02.585Z,100969.16
2023-05-22T21:57:29.542Z,100972.06
2023-05-22T21:59:56.153Z,100966.59
2023-05-22T22:02:22.751Z,100959.56
2023-05-22T22:04:49.307Z,100963.78
2023-05-22T22:07:15.932Z,100957.22
2023-05-22T22:09:42.671Z,100939.09
2023-05-22T22:12:09.375Z,100935.63
2023-05-22T22:14:35.959Z,100922.22
2023-05-22T22:17:05.963Z,100928.81
2023-05-22T22:19:34.353Z,100926.47
2023-05-22T22:22:01.982Z,100917.53
2023-05-22T22:24:29.772Z,100918.66
2023-05-22T22:26:56.770Z,100916.31
2023-05-22T22:29:23.452Z,100919.00
2023-05-22T22:31:50.087Z,100910.84
2023-05-22T22:34:16.634Z,100914.31
2023-05-22T22:36:43.120Z,100911.19
2023-05-22T22:39:10.593Z,100910.38
2023-05-22T22:41:37.229Z,100904.34
2023-05-22T22:44:03.899Z,100901.22
2023-05-22T22:46:30.913Z,100906.03
2023-05-22T22:48:58.800Z,100906.38
2023-05-22T22:51:25.258Z,100903.47
2023-05-22T22:53:51.732Z,100896.03
2023-05-22T22:56:18.371Z,100888.22
2023-05-22T22:58:44.825Z,100884.78
2023-05-22T23:01:11.348Z,100883.00
2023-05-22T23:03:38.076Z,100888.03
2023-05-22T23:06:04.624Z,100878.28
2023-05-22T23:08:31.155Z,100881.75
2023-05-22T23:10:57.904Z,100881.53
2023-05-22T23:13:24.423Z,100881.09
2023-05-22T23:15:51.021Z,100878.97
2023-05-22T23:18:17.741Z,100873.50
2023-05-22T23:20:44.239Z,100877.19
2023-05-22T23:23:10.783Z,100873.50
2023-05-22T23:25:37.286Z,100869.59
2023-05-22T23:28:03.789Z,100856.41
2023-05-22T23:30:30.210Z,100865.66
2023-05-22T23:32:56.724Z,100853.84
2023-05-22T23:35:23.197Z,100858.06
2023-05-22T23:37:49.692Z,100857.84
2023-05-22T23:40:16.136Z,100854.72
2023-05-22T23:42:42.610Z,100856.06
2023-05-22T23:45:09.156Z,100847.13
2023-05-22T23:47:35.714Z,100831.06
2023-05-22T23:50:02.248Z,100825.03
2023-05-22T23:52:28.722Z,100821.91
2023-05-22T23:54:55.574Z,100820.34
2023-05-22T23:57:22.125Z,100820.13
2023-05-22T23:59:48.637Z,100821.44
